createdAt,value
2023-10-20T00:00:39.377Z,52.11
2023-10-20T00:03:28.559Z,52.30
2023-10-20T00:05:58.069Z,52.15
2023-10-20T00:08:26.674Z,52.17
2023-10-20T00:10:58.864Z,52.31
2023-10-20T00:13:27.382Z,52.50
2023-10-20T00:15:55.813Z,52.66
2023-10-20T00:18:24.908Z,52.44
2023-10-20T00:20:53.646Z,52.55
2023-10-20T00:23:22.190Z,52.67
2023-10-20T00:25:50.909Z,52.90
2023-10-20T00:28:19.498Z,52.76
2023-10-20T00:30:47.983Z,53.01
2023-10-20T00:33:17.270Z,53.64
2023-10-20T00:35:45.776Z,53.99
2023-10-20T00:38:14.180Z,54.46
2023-10-20T00:40:50.400Z,54.40
2023-10-20T00:43:19.692Z,54.39
2023-10-20T00:45:49.332Z,54.68
2023-10-20T00:48:18.004Z,54.79
2023-10-20T00:50:47.296Z,54.91
2023-10-20T00:53:16.203Z,55.03
2023-10-20T00:55:45.179Z,54.98
2023-10-20T00:58:13.574Z,54.95
2023-10-20T01:00:42.442Z,55.00
2023-10-20T01:03:12.337Z,55.14
2023-10-20T01:05:41.322Z,54.92
2023-10-20T01:08:10.259Z,54.98
2023-10-20T01:10:39.024Z,55.53
2023-10-20T01:13:07.813Z,55.61
2023-10-20T01:15:38.471Z,55.89
2023-10-20T01:18:09.121Z,56.00
2023-10-20T01:20:39.586Z,55.76
2023-10-20T01:23:08.759Z,55.85
2023-10-20T01:25:37.690Z,55.76
2023-10-20T01:28:06.793Z,56.02
2023-10-20T01:30:35.289Z,56.11
2023-10-20T01:33:04.153Z,56.05
2023-10-20T01:35:32.812Z,56.17
2023-10-20T01:38:02.383Z,56.28
2023-10-20T01:40:30.939Z,56.08
2023-10-20T01:42:59.516Z,56.12
2023-10-20T01:45:28.303Z,56.06
2023-10-20T01:47:57.181Z,56.42
2023-10-20T01:50:25.944Z,56.39
2023-10-20T01:52:56.106Z,57.08
2023-10-20T01:55:24.963Z,56.79
2023-10-20T01:57:53.779Z,57.29
2023-10-20T02:00:23.799Z,56.82
2023-10-20T02:02:52.416Z,57.21
2023-10-20T02:05:21.430Z,57.18
2023-10-20T02:07:50.970Z,57.12
2023-10-20T02:10:19.448Z,57.64
2023-10-20T02:12:48.349Z,57.59
2023-10-20T02:15:16.929Z,57.52
2023-10-20T02:17:45.552Z,57.79
2023-10-20T02:20:17.144Z,58.02
2023-10-20T02:22:45.751Z,58.04
2023-10-20T02:25:14.746Z,58.19
2023-10-20T02:27:44.042Z,58.11
2023-10-20T02:30:14.838Z,58.72
2023-10-20T02:32:44.362Z,58.79
2023-10-20T02:35:13.972Z,58.50
2023-10-20T02:37:42.699Z,58.84
2023-10-20T02:40:12.142Z,58.94
2023-10-20T02:42:40.759Z,58.78
2023-10-20T02:45:12.523Z,58.91
2023-10-20T02:47:41.499Z,59.22
2023-10-20T02:50:10.794Z,59.34
2023-10-20T02:52:39.422Z,59.48
2023-10-20T02:55:08.634Z,59.60
2023-10-20T02:57:38.304Z,59.55
2023-10-20T03:00:19.495Z,59.78
2023-10-20T03:02:50.187Z,59.94
2023-10-20T03:05:20.679Z,59.94
2023-10-20T03:07:49.337Z,59.99
2023-10-20T03:10:18.421Z,60.05
2023-10-20T03:12:47.103Z,60.34
2023-10-20T03:15:16.809Z,60.00
2023-10-20T03:17:45.277Z,60.55
2023-10-20T03:20:18.969Z,60.92
2023-10-20T03:22:49.422Z,61.12
2023-10-20T03:25:19.443Z,60.88
2023-10-20T03:27:48.943Z,61.24
2023-10-20T03:30:17.517Z,61.46
2023-10-20T03:32:51.890Z,60.99
2023-10-20T03:35:20.922Z,61.08
2023-10-20T03:37:58.429Z,60.80
2023-10-20T03:40:37.865Z,61.24
2023-10-20T03:43:08.087Z,61.32
2023-10-20T03:45:44.299Z,61.43
2023-10-20T03:48:13.072Z,61.57
2023-10-20T03:50:48.165Z,61.50
2023-10-20T03:53:22.433Z,61.73
2023-10-20T03:56:08.340Z,62.03
2023-10-20T03:58:37.567Z,61.87
2023-10-20T04:01:08.207Z,61.82
2023-10-20T04:03:36.946Z,62.22
2023-10-20T04:06:12.977Z,62.65
2023-10-20T04:08:42.845Z,62.97
2023-10-20T04:11:11.359Z,63.05
2023-10-20T04:13:40.838Z,63.66
2023-10-20T04:16:18.739Z,63.87
2023-10-20T04:18:48.552Z,64.03
2023-10-20T04:21:17.023Z,63.87
2023-10-20T04:23:45.758Z,63.71
2023-10-20T04:26:24.413Z,64.45
2023-10-20T04:29:09.660Z,64.23
2023-10-20T04:31:57.242Z,64.92
2023-10-20T04:34:44.756Z,65.02
2023-10-20T04:37:32.073Z,64.90
2023-10-20T04:40:19.136Z,64.74
2023-10-20T04:43:07.028Z,64.23
2023-10-20T04:45:35.508Z,63.95
2023-10-20T04:48:22.139Z,64.32
2023-10-20T04:51:12.099Z,64.70
2023-10-20T04:54:06.790Z,64.48
2023-10-20T04:56:40.461Z,64.72
2023-10-20T04:59:12.359Z,64.69
2023-10-20T05:01:51.165Z,64.23
2023-10-20T05:04:25.796Z,64.12
2023-10-20T05:07:06.828Z,64.19
2023-10-20T05:09:42.413Z,64.11
2023-10-20T05:12:10.994Z,64.03
2023-10-20T05:14:39.633Z,64.47
2023-10-20T05:17:14.542Z,64.10
2023-10-20T05:19:43.398Z,63.70
2023-10-20T05:22:11.881Z,63.62
2023-10-20T05:24:40.574Z,63.30
2023-10-20T05:27:09.148Z,63.09
2023-10-20T05:29:39.676Z,62.70
2023-10-20T05:32:08.102Z,61.31
2023-10-20T05:34:36.586Z,58.98
2023-10-20T05:37:05.435Z,57.09
2023-10-20T05:39:34.118Z,55.33
2023-10-20T05:42:05.979Z,52.51
2023-10-20T05:44:39.430Z,51.50
2023-10-20T05:47:08.009Z,49.26
2023-10-20T05:49:36.851Z,48.08
2023-10-20T05:52:05.438Z,47.83
2023-10-20T05:54:34.219Z,47.93
2023-10-20T05:57:02.711Z,49.54
2023-10-20T05:59:31.465Z,51.08
2023-10-20T06:01:59.897Z,51.86
2023-10-20T06:04:29.009Z,52.79
2023-10-20T06:06:57.963Z,53.39
2023-10-20T06:09:26.710Z,53.90
2023-10-20T06:11:55.643Z,53.71
2023-10-20T06:14:25.379Z,52.84
2023-10-20T06:16:54.579Z,50.38
2023-10-20T06:19:23.342Z,48.78
2023-10-20T06:21:52.336Z,47.03
2023-10-20T06:24:20.811Z,43.67
2023-10-20T06:26:49.459Z,42.12
2023-10-20T06:29:24.248Z,41.53
2023-10-20T06:32:11.262Z,39.99
2023-10-20T06:34:43.430Z,40.89
2023-10-20T06:37:15.658Z,42.37
2023-10-20T06:39:44.344Z,43.18
2023-10-20T06:42:13.850Z,42.08
2023-10-20T06:44:42.673Z,40.91
2023-10-20T06:47:12.649Z,39.95
2023-10-20T06:49:44.504Z,39.49
2023-10-20T06:52:18.648Z,36.44
2023-10-20T06:55:08.801Z,36.88
2023-10-20T06:57:36.325Z,34.74
2023-10-20T07:00:08.162Z,34.30
2023-10-20T07:02:37.224Z,34.01
2023-10-20T07:05:06.828Z,32.75
2023-10-20T07:07:35.419Z,32.98
2023-10-20T07:10:04.717Z,31.82
2023-10-20T07:12:34.014Z,31.77
2023-10-20T07:15:02.703Z,30.76
2023-10-20T07:17:31.268Z,31.12
2023-10-20T07:19:59.864Z,30.76
2023-10-20T07:22:31.115Z,30.77
2023-10-20T07:24:59.897Z,30.43
2023-10-20T07:27:28.577Z,30.35
2023-10-20T07:29:58.765Z,29.92
2023-10-20T07:32:27.677Z,30.64
2023-10-20T07:34:56.184Z,29.73
2023-10-20T07:37:24.556Z,29.97
2023-10-20T07:39:53.750Z,28.28
2023-10-20T07:42:22.336Z,27.10
2023-10-20T07:44:51.798Z,27.84
2023-10-20T07:47:20.360Z,27.91
2023-10-20T07:49:49.509Z,26.76
2023-10-20T07:52:18.916Z,26.40
2023-10-20T07:54:47.394Z,26.45
2023-10-20T07:57:16.844Z,26.38
2023-10-20T07:59:47.744Z,26.28
2023-10-20T08:02:16.471Z,26.53
2023-10-20T08:04:45.348Z,25.69
2023-10-20T08:07:14.772Z,25.25
2023-10-20T08:09:43.709Z,26.50
2023-10-20T08:12:12.303Z,26.68
2023-10-20T08:14:41.902Z,27.35
2023-10-20T08:17:11.841Z,26.94
2023-10-20T08:19:45.929Z,27.17
2023-10-20T08:22:14.510Z,27.26
2023-10-20T08:24:43.193Z,27.66
2023-10-20T08:27:11.773Z,27.04
2023-10-20T08:29:41.277Z,26.52
2023-10-20T08:32:10.195Z,26.25
2023-10-20T08:34:39.366Z,26.77
2023-10-20T08:37:09.070Z,27.02
2023-10-20T08:39:37.654Z,27.56
2023-10-20T08:42:18.536Z,27.45
2023-10-20T08:44:47.908Z,27.74
2023-10-20T08:47:18.097Z,28.15
2023-10-20T08:49:47.546Z,27.95
2023-10-20T08:52:18.468Z,27.22
2023-10-20T08:54:49.433Z,26.37
2023-10-20T08:57:17.840Z,26.48
2023-10-20T08:59:53.185Z,26.42
2023-10-20T09:02:22.795Z,25.84
2023-10-20T09:04:52.674Z,25.48
2023-10-20T09:07:24.020Z,25.45
2023-10-20T09:09:54.547Z,24.98
2023-10-20T09:12:26.092Z,25.02
2023-10-20T09:14:57.849Z,25.08
2023-10-20T09:17:26.703Z,24.50
2023-10-20T09:20:06.720Z,23.60
2023-10-20T09:22:35.188Z,23.55
2023-10-20T09:25:07.525Z,22.91
2023-10-20T09:27:36.036Z,23.06
2023-10-20T09:30:12.354Z,23.08
2023-10-20T09:32:41.181Z,23.09
2023-10-20T09:35:10.616Z,23.04
2023-10-20T09:37:40.712Z,22.69
2023-10-20T09:40:10.517Z,22.45
2023-10-20T09:43:26.456Z,22.83
2023-10-20T09:46:05.444Z,22.99
2023-10-20T09:48:35.585Z,24.05
2023-10-20T09:51:04.654Z,25.57
2023-10-20T09:53:33.163Z,26.68
2023-10-20T09:56:02.025Z,28.78
2023-10-20T09:58:35.513Z,29.78
2023-10-20T10:01:05.378Z,31.15
2023-10-20T10:03:44.929Z,31.91
2023-10-20T10:06:17.850Z,33.42
2023-10-20T10:08:49.178Z,33.85
2023-10-20T10:11:33.204Z,34.94
2023-10-20T10:14:03.880Z,35.23
2023-10-20T10:16:33.197Z,35.22
2023-10-20T10:19:11.374Z,34.57
2023-10-20T10:21:41.819Z,34.84
2023-10-20T10:24:11.215Z,34.25
2023-10-20T10:26:57.806Z,33.94
2023-10-20T10:29:53.016Z,33.41
2023-10-20T10:32:23.997Z,33.18
2023-10-20T10:34:57.503Z,33.14
2023-10-20T10:37:36.327Z,32.71
2023-10-20T10:40:13.755Z,32.63
2023-10-20T10:42:44.707Z,32.39
2023-10-20T10:45:28.899Z,32.01
2023-10-20T10:48:07.316Z,31.58
2023-10-20T10:50:40.846Z,31.71
2023-10-20T10:53:11.385Z,31.97
2023-10-20T10:55:41.120Z,32.42
2023-10-20T10:58:11.587Z,32.66
2023-10-20T11:00:40.936Z,32.45
2023-10-20T11:03:10.819Z,31.91
2023-10-20T11:05:40.680Z,31.72
2023-10-20T11:08:14.056Z,32.13
2023-10-20T11:10:47.519Z,32.22
2023-10-20T11:13:21.466Z,31.88
2023-10-20T11:15:51.551Z,31.14
2023-10-20T11:18:22.157Z,30.66
2023-10-20T11:20:51.480Z,30.25
2023-10-20T11:23:35.550Z,29.19
2023-10-20T11:26:16.245Z,27.97
2023-10-20T11:28:47.690Z,27.59
2023-10-20T11:31:16.413Z,27.12
2023-10-20T11:33:45.099Z,26.69
2023-10-20T11:36:13.852Z,26.14
2023-10-20T11:38:42.456Z,25.93
2023-10-20T11:41:11.880Z,25.79
2023-10-20T11:43:41.642Z,25.28
2023-10-20T11:46:12.973Z,25.06
2023-10-20T11:48:41.749Z,24.98
2023-10-20T11:51:12.158Z,25.09
2023-10-20T11:53:42.352Z,25.54
2023-10-20T11:56:12.240Z,26.28
2023-10-20T11:58:40.819Z,27.14
2023-10-20T12:01:09.205Z,27.93
2023-10-20T12:03:38.336Z,28.69
2023-10-20T12:06:08.422Z,29.31
2023-10-20T12:08:36.946Z,30.51
2023-10-20T12:11:06.005Z,31.19
2023-10-20T12:13:38.179Z,32.56
2023-10-20T12:16:08.243Z,32.71
2023-10-20T12:18:36.839Z,33.70
2023-10-20T12:21:05.556Z,34.15
2023-10-20T12:23:34.055Z,34.46
2023-10-20T12:26:04.659Z,34.98
2023-10-20T12:28:33.555Z,35.45
2023-10-20T12:31:02.515Z,35.94
2023-10-20T12:33:31.382Z,36.10
2023-10-20T12:36:00.399Z,36.45
2023-10-20T12:38:29.121Z,36.30
2023-10-20T12:40:57.698Z,36.62
2023-10-20T12:43:27.518Z,36.52
2023-10-20T12:45:56.089Z,36.91
2023-10-20T12:48:26.268Z,36.98
2023-10-20T12:50:55.043Z,37.06
2023-10-20T12:53:23.717Z,37.16
2023-10-20T12:55:54.626Z,37.26
2023-10-20T12:58:23.068Z,37.59
2023-10-20T13:00:51.585Z,37.49
2023-10-20T13:03:20.066Z,37.50
2023-10-20T13:05:49.419Z,37.67
2023-10-20T13:08:18.048Z,37.91
2023-10-20T13:10:48.986Z,38.00
2023-10-20T13:13:18.697Z,37.97
2023-10-20T13:15:47.379Z,38.20
2023-10-20T13:18:17.175Z,38.28
2023-10-20T13:20:48.859Z,38.45
2023-10-20T13:23:17.836Z,38.91
2023-10-20T13:25:46.327Z,39.27
2023-10-20T13:28:15.238Z,39.21
2023-10-20T13:33:24.247Z,39.43
2023-10-20T13:35:52.753Z,40.08
2023-10-20T13:41:00.868Z,40.18
2023-10-20T13:43:30.062Z,40.64
2023-10-20T13:45:58.905Z,40.62
2023-10-20T13:48:27.686Z,40.58
2023-10-20T13:50:56.449Z,40.61
2023-10-20T13:53:26.226Z,40.78
2023-10-20T13:55:55.222Z,40.60
2023-10-20T13:58:24.337Z,40.67
2023-10-20T14:00:52.878Z,40.87
2023-10-20T14:03:22.002Z,41.38
2023-10-20T14:05:56.356Z,41.42
2023-10-20T14:08:25.095Z,41.22
2023-10-20T14:10:55.751Z,41.45
2023-10-20T14:13:24.134Z,41.66
2023-10-20T14:15:52.736Z,42.09
2023-10-20T14:18:21.573Z,42.76
2023-10-20T14:20:50.231Z,43.63
2023-10-20T14:23:19.373Z,43.01
2023-10-20T14:25:47.960Z,42.65
2023-10-20T14:28:16.640Z,42.46
2023-10-20T14:30:45.326Z,43.15
2023-10-20T14:33:14.100Z,42.84
2023-10-20T14:35:43.012Z,43.15
2023-10-20T14:38:11.485Z,43.17
2023-10-20T14:40:40.055Z,44.27
2023-10-20T14:43:09.376Z,43.80
2023-10-20T14:45:38.451Z,43.93
2023-10-20T14:48:07.344Z,44.61
2023-10-20T14:50:38.842Z,45.13
2023-10-20T14:53:07.575Z,44.62
2023-10-20T14:55:37.593Z,44.91
2023-10-20T14:58:06.290Z,45.02
2023-10-20T15:00:37.532Z,45.13
2023-10-20T15:03:06.576Z,45.82
2023-10-20T15:05:39.088Z,45.51
2023-10-20T15:08:08.672Z,46.94
2023-10-20T15:10:37.598Z,45.85
2023-10-20T15:13:06.488Z,46.01
2023-10-20T15:15:36.050Z,46.14
2023-10-20T15:18:05.390Z,46.81
2023-10-20T15:20:34.137Z,46.85
2023-10-20T15:23:16.499Z,47.35
2023-10-20T15:25:47.016Z,47.85
2023-10-20T15:28:15.502Z,47.37
2023-10-20T15:30:44.080Z,47.40
2023-10-20T15:33:13.340Z,47.44
2023-10-20T15:35:44.081Z,47.57
2023-10-20T15:38:12.910Z,48.17
2023-10-20T15:40:42.109Z,48.19
2023-10-20T15:43:11.714Z,48.81
2023-10-20T15:45:40.199Z,48.29
2023-10-20T15:48:11.062Z,48.28
2023-10-20T15:50:44.346Z,48.74
2023-10-20T15:53:13.003Z,49.26
2023-10-20T15:55:43.218Z,48.99
2023-10-20T15:58:11.614Z,49.08
2023-10-20T16:00:42.353Z,48.84
2023-10-20T16:03:10.872Z,49.26
2023-10-20T16:05:39.747Z,49.04
2023-10-20T16:08:08.397Z,48.77
2023-10-20T16:10:36.972Z,48.56
2023-10-20T16:13:05.567Z,48.57
2023-10-20T16:15:33.939Z,48.39
2023-10-20T16:18:02.906Z,48.69
2023-10-20T16:20:31.764Z,48.97
2023-10-20T16:23:00.403Z,48.87
2023-10-20T16:25:28.993Z,49.08
2023-10-20T16:27:59.574Z,49.29
2023-10-20T16:30:28.818Z,50.13
2023-10-20T16:32:59.863Z,49.66
2023-10-20T16:35:29.197Z,50.07
2023-10-20T16:37:57.839Z,49.65
2023-10-20T16:40:26.322Z,49.79
2023-10-20T16:42:54.701Z,50.04
2023-10-20T16:45:23.070Z,50.49
2023-10-20T16:47:52.881Z,49.87
2023-10-20T16:50:22.287Z,49.54
2023-10-20T16:52:50.767Z,49.92
2023-10-20T16:55:19.236Z,49.52
2023-10-20T16:57:50.087Z,49.59
2023-10-20T17:00:18.967Z,49.55
2023-10-20T17:02:48.716Z,50.54
2023-10-20T17:05:17.590Z,49.97
2023-10-20T17:07:48.808Z,50.37
2023-10-20T17:10:18.120Z,50.29
2023-10-20T17:12:49.880Z,50.35
2023-10-20T17:15:19.317Z,50.40
2023-10-20T17:17:47.710Z,50.65
2023-10-20T17:20:16.442Z,50.25
2023-10-20T17:22:45.438Z,50.35
2023-10-20T17:25:16.375Z,50.07
2023-10-20T17:27:49.799Z,50.22
2023-10-20T17:30:19.614Z,50.30
2023-10-20T17:32:53.343Z,50.44
2023-10-20T17:35:22.976Z,50.81
2023-10-20T17:37:51.472Z,50.87
2023-10-20T17:40:20.156Z,51.03
2023-10-20T17:42:48.643Z,50.90
2023-10-20T17:45:17.525Z,51.09
2023-10-20T17:47:47.724Z,50.85
2023-10-20T17:50:18.923Z,50.75
2023-10-20T17:52:50.857Z,50.63
2023-10-20T17:55:23.127Z,50.40
2023-10-20T17:57:51.720Z,50.59
2023-10-20T18:00:22.772Z,50.67
2023-10-20T18:02:52.606Z,50.77
2023-10-20T18:05:21.505Z,51.06
2023-10-20T18:07:51.164Z,51.12
2023-10-20T18:10:20.243Z,50.91
2023-10-20T18:12:51.095Z,51.08
2023-10-20T18:15:22.034Z,51.75
2023-10-20T18:17:50.578Z,51.68
2023-10-20T18:20:20.933Z,51.45
2023-10-20T18:22:49.844Z,51.94
2023-10-20T18:25:21.282Z,51.96
2023-10-20T18:27:49.558Z,52.02
2023-10-20T18:30:21.211Z,51.73
2023-10-20T18:32:56.568Z,52.27
2023-10-20T18:35:30.876Z,52.37
2023-10-20T18:38:03.033Z,52.43
2023-10-20T18:40:36.124Z,52.47
2023-10-20T18:43:05.522Z,52.15
2023-10-20T18:45:34.246Z,52.27
2023-10-20T18:48:03.086Z,52.14
2023-10-20T18:50:31.952Z,52.39
2023-10-20T18:53:00.572Z,52.46
2023-10-20T18:55:30.176Z,52.99
2023-10-20T18:58:01.019Z,53.20
2023-10-20T19:00:33.796Z,53.34
2023-10-20T19:03:06.135Z,53.54
2023-10-20T19:05:34.786Z,53.71
2023-10-20T19:08:05.834Z,53.84
2023-10-20T19:10:34.278Z,53.86
2023-10-20T19:13:03.271Z,54.21
2023-10-20T19:15:35.044Z,54.04
2023-10-20T19:18:05.612Z,54.74
2023-10-20T19:20:34.142Z,54.95
2023-10-20T19:23:08.755Z,54.45
2023-10-20T19:25:40.442Z,54.62
2023-10-20T19:28:09.507Z,54.68
2023-10-20T19:30:38.412Z,54.97
2023-10-20T19:33:06.656Z,55.20
2023-10-20T19:35:35.181Z,55.28
2023-10-20T19:38:04.757Z,55.14
2023-10-20T19:40:36.011Z,55.41
2023-10-20T19:43:05.099Z,55.11
2023-10-20T19:45:33.492Z,55.26
2023-10-20T19:48:01.779Z,55.40
2023-10-20T19:50:30.377Z,54.90
2023-10-20T19:52:58.921Z,54.81
2023-10-20T19:55:27.503Z,54.88
2023-10-20T19:57:56.095Z,54.65
2023-10-20T20:00:26.553Z,54.78
2023-10-20T20:02:55.222Z,54.50
2023-10-20T20:05:26.161Z,55.15
2023-10-20T20:07:55.741Z,55.19
2023-10-20T20:10:24.943Z,55.05
2023-10-20T20:12:53.492Z,55.51
2023-10-20T20:15:24.352Z,55.61
2023-10-20T20:17:53.724Z,55.88
2023-10-20T20:20:22.554Z,56.18
2023-10-20T20:22:51.168Z,56.15
2023-10-20T20:25:19.941Z,56.27
2023-10-20T20:27:48.608Z,56.55
2023-10-20T20:30:17.780Z,56.32
2023-10-20T20:32:48.610Z,56.43
2023-10-20T20:35:17.474Z,57.13
2023-10-20T20:37:47.965Z,57.25
2023-10-20T20:40:16.646Z,57.09
2023-10-20T20:42:45.029Z,57.23
2023-10-20T20:45:13.726Z,57.37
2023-10-20T20:47:42.180Z,57.86
2023-10-20T20:50:18.856Z,58.18
2023-10-20T20:52:55.423Z,58.48
2023-10-20T20:55:24.015Z,58.50
2023-10-20T20:57:52.804Z,58.57
2023-10-20T21:00:21.825Z,58.60
2023-10-20T21:02:50.386Z,58.72
2023-10-20T21:05:19.263Z,58.69
2023-10-20T21:07:47.646Z,58.32
2023-10-20T21:10:16.537Z,58.05
2023-10-20T21:12:45.013Z,58.16
2023-10-20T21:15:14.251Z,57.91
2023-10-20T21:17:42.883Z,58.01
2023-10-20T21:20:12.193Z,57.57
2023-10-20T21:22:41.278Z,57.96
2023-10-20T21:25:10.669Z,57.86
2023-10-20T21:27:39.264Z,57.48
2023-10-20T21:30:09.679Z,58.18
2023-10-20T21:32:38.351Z,58.63
2023-10-20T21:35:07.455Z,58.16
2023-10-20T21:37:35.834Z,58.21
2023-10-20T21:40:05.752Z,58.41
2023-10-20T21:42:36.479Z,58.39
2023-10-20T21:45:05.614Z,58.32
2023-10-20T21:47:34.232Z,58.06
2023-10-20T21:50:02.863Z,57.66
2023-10-20T21:52:32.712Z,57.42
2023-10-20T21:55:01.228Z,57.04
2023-10-20T21:57:29.820Z,56.85
2023-10-20T21:59:58.325Z,56.71
2023-10-20T22:02:28.138Z,56.59
2023-10-20T22:04:56.478Z,56.47
2023-10-20T22:07:24.878Z,56.22
2023-10-20T22:09:54.464Z,56.07
2023-10-20T22:12:23.366Z,55.94
2023-10-20T22:14:52.282Z,55.84
2023-10-20T22:17:20.630Z,55.57
2023-10-20T22:19:49.526Z,55.58
2023-10-20T22:22:18.208Z,55.48
2023-10-20T22:24:46.897Z,55.35
2023-10-20T22:27:17.599Z,55.35
2023-10-20T22:29:46.528Z,55.13
2023-10-20T22:32:15.316Z,55.14
2023-10-20T22:34:43.811Z,55.16
2023-10-20T22:37:12.776Z,55.10
2023-10-20T22:39:41.151Z,55.22
2023-10-20T22:42:09.691Z,55.01
2023-10-20T22:44:38.555Z,55.01
2023-10-20T22:47:06.937Z,55.04
2023-10-20T22:49:35.515Z,54.88
2023-10-20T22:52:04.899Z,54.98
2023-10-20T22:54:33.472Z,55.02
2023-10-20T22:57:01.975Z,55.20
2023-10-20T22:59:30.428Z,55.16
2023-10-20T23:01:59.026Z,55.12
2023-10-20T23:04:27.825Z,54.99
2023-10-20T23:06:56.391Z,55.19
2023-10-20T23:09:24.987Z,55.16
2023-10-20T23:11:53.366Z,55.17
2023-10-20T23:14:21.837Z,55.22
2023-10-20T23:16:50.835Z,55.36
2023-10-20T23:19:19.216Z,55.48
2023-10-20T23:21:47.594Z,55.52
2023-10-20T23:24:16.123Z,55.49
2023-10-20T23:26:45.202Z,55.39
2023-10-20T23:29:14.366Z,55.63
2023-10-20T23:31:42.847Z,55.46
2023-10-20T23:34:11.634Z,55.48
2023-10-20T23:36:42.069Z,55.73
2023-10-20T23:39:11.001Z,55.85
2023-10-20T23:41:39.460Z,55.53
2023-10-20T23:44:07.926Z,55.93
2023-10-20T23:46:36.398Z,56.15
2023-10-20T23:49:04.982Z,56.01
2023-10-20T23:51:33.567Z,56.27
2023-10-20T23:54:01.966Z,56.11
2023-10-20T23:56:30.645Z,56.30
2023-10-20T23:58:59.418Z,56.41
